sensor_id;sensor_type;location;lat;lon;timestamp;temperature;humidity
83098;DHT22;72971;47.204;8.582;2023-10-09T00:00:19;22.90;50.50
83098;DHT22;72971;47.204;8.582;2023-10-09T00:05:41;22.90;50.50
83098;DHT22;72971;47.204;8.582;2023-10-09T00:10:49;22.90;50.50
83098;DHT22;72971;47.204;8.582;2023-10-09T00:15:57;22.90;50.50
83098;DHT22;72971;47.204;8.582;2023-10-09T00:21:03;22.90;50.50
83098;DHT22;72971;47.204;8.582;2023-10-09T00:26:17;22.90;50.50
83098;DHT22;72971;47.204;8.582;2023-10-09T00:31:19;22.80;50.50
83098;DHT22;72971;47.204;8.582;2023-10-09T00:36:29;22.80;50.50
83098;DHT22;72971;47.204;8.582;2023-10-09T00:41:33;22.80;50.50
83098;DHT22;72971;47.204;8.582;2023-10-09T00:46:37;22.80;50.50
83098;DHT22;72971;47.204;8.582;2023-10-09T00:51:43;22.80;50.50
83098;DHT22;72971;47.204;8.582;2023-10-09T00:56:48;22.80;50.50
83098;DHT22;72971;47.204;8.582;2023-10-09T01:01:52;22.80;50.50
83098;DHT22;72971;47.204;8.582;2023-10-09T01:06:59;22.80;50.50
83098;DHT22;72971;47.204;8.582;2023-10-09T01:12:10;22.80;50.50
83098;DHT22;72971;47.204;8.582;2023-10-09T01:17:19;22.80;50.60
83098;DHT22;72971;47.204;8.582;2023-10-09T01:22:23;22.80;50.50
83098;DHT22;72971;47.204;8.582;2023-10-09T01:27:27;22.80;50.50
83098;DHT22;72971;47.204;8.582;2023-10-09T01:32:33;22.80;50.50
83098;DHT22;72971;47.204;8.582;2023-10-09T01:37:36;22.80;50.50
83098;DHT22;72971;47.204;8.582;2023-10-09T01:42:39;22.80;50.50
83098;DHT22;72971;47.204;8.582;2023-10-09T01:47:43;22.80;50.50
83098;DHT22;72971;47.204;8.582;2023-10-09T01:52:50;22.80;50.50
83098;DHT22;72971;47.204;8.582;2023-10-09T01:57:56;22.80;50.50
83098;DHT22;72971;47.204;8.582;2023-10-09T02:03:03;22.70;50.50
83098;DHT22;72971;47.204;8.582;2023-10-09T02:08:07;22.70;50.50
83098;DHT22;72971;47.204;8.582;2023-10-09T02:13:11;22.70;50.50
83098;DHT22;72971;47.204;8.582;2023-10-09T02:18:20;22.70;50.50
83098;DHT22;72971;47.204;8.582;2023-10-09T02:23:27;22.70;50.50
83098;DHT22;72971;47.204;8.582;2023-10-09T02:28:50;22.70;50.50
83098;DHT22;72971;47.204;8.582;2023-10-09T02:34:03;22.70;50.50
83098;DHT22;72971;47.204;8.582;2023-10-09T02:39:06;22.70;50.60
83098;DHT22;72971;47.204;8.582;2023-10-09T02:44:10;22.70;50.50
83098;DHT22;72971;47.204;8.582;2023-10-09T02:49:14;22.70;50.50
83098;DHT22;72971;47.204;8.582;2023-10-09T02:54:17;22.70;50.50
83098;DHT22;72971;47.204;8.582;2023-10-09T02:59:20;22.70;50.50
83098;DHT22;72971;47.204;8.582;2023-10-09T03:04:25;22.70;50.50
83098;DHT22;72971;47.204;8.582;2023-10-09T03:09:31;22.70;50.50
83098;DHT22;72971;47.204;8.582;2023-10-09T03:14:37;22.70;50.50
83098;DHT22;72971;47.204;8.582;2023-10-09T03:19:41;22.70;50.50
83098;DHT22;72971;47.204;8.582;2023-10-09T03:24:44;22.70;50.50
83098;DHT22;72971;47.204;8.582;2023-10-09T03:29:48;22.70;50.50
83098;DHT22;72971;47.204;8.582;2023-10-09T03:34:55;22.70;50.50
83098;DHT22;72971;47.204;8.582;2023-10-09T03:39:59;22.70;50.50
83098;DHT22;72971;47.204;8.582;2023-10-09T03:45:01;22.70;50.60
83098;DHT22;72971;47.204;8.582;2023-10-09T03:50:06;22.70;50.00
83098;DHT22;72971;47.204;8.582;2023-10-09T03:55:10;22.70;50.50
83098;DHT22;72971;47.204;8.582;2023-10-09T04:00:15;22.70;50.50
83098;DHT22;72971;47.204;8.582;2023-10-09T04:05:19;22.70;50.50
83098;DHT22;72971;47.204;8.582;2023-10-09T04:10:21;22.60;50.50
83098;DHT22;72971;47.204;8.582;2023-10-09T04:15:42;22.60;50.40
83098;DHT22;72971;47.204;8.582;2023-10-09T04:20:44;22.70;50.50
83098;DHT22;72971;47.204;8.582;2023-10-09T04:25:51;22.60;50.40
83098;DHT22;72971;47.204;8.582;2023-10-09T04:30:54;22.60;50.40
83098;DHT22;72971;47.204;8.582;2023-10-09T04:36:04;22.60;50.40
83098;DHT22;72971;47.204;8.582;2023-10-09T04:41:24;22.60;50.40
83098;DHT22;72971;47.204;8.582;2023-10-09T04:46:30;22.60;50.50
83098;DHT22;72971;47.204;8.582;2023-10-09T04:51:34;22.60;50.40
83098;DHT22;72971;47.204;8.582;2023-10-09T04:56:38;22.60;50.50
83098;DHT22;72971;47.204;8.582;2023-10-09T05:01:43;22.60;51.10
83098;DHT22;72971;47.204;8.582;2023-10-09T05:06:47;22.60;50.50
83098;DHT22;72971;47.204;8.582;2023-10-09T05:11:59;22.60;51.10
83098;DHT22;72971;47.204;8.582;2023-10-09T05:17:03;22.60;50.40
83098;DHT22;72971;47.204;8.582;2023-10-09T05:22:05;22.60;50.40
83098;DHT22;72971;47.204;8.582;2023-10-09T05:27:10;22.60;50.40
83098;DHT22;72971;47.204;8.582;2023-10-09T05:32:23;22.60;50.40
83098;DHT22;72971;47.204;8.582;2023-10-09T05:37:34;22.60;50.40
83098;DHT22;72971;47.204;8.582;2023-10-09T05:42:38;22.60;50.40
83098;DHT22;72971;47.204;8.582;2023-10-09T05:47:53;22.60;50.40
83098;DHT22;72971;47.204;8.582;2023-10-09T05:52:58;22.60;50.70
83098;DHT22;72971;47.204;8.582;2023-10-09T05:58:05;22.60;50.50
83098;DHT22;72971;47.204;8.582;2023-10-09T06:03:25;22.60;50.60
83098;DHT22;72971;47.204;8.582;2023-10-09T06:08:31;22.60;50.60
83098;DHT22;72971;47.204;8.582;2023-10-09T06:13:44;22.60;49.40
83098;DHT22;72971;47.204;8.582;2023-10-09T06:18:48;22.40;46.50
83098;DHT22;72971;47.204;8.582;2023-10-09T06:24:00;22.30;46.20
83098;DHT22;72971;47.204;8.582;2023-10-09T06:29:13;22.20;46.10
83098;DHT22;72971;47.204;8.582;2023-10-09T06:34:19;22.20;46.00
83098;DHT22;72971;47.204;8.582;2023-10-09T06:39:23;22.20;46.00
83098;DHT22;72971;47.204;8.582;2023-10-09T06:44:44;22.20;46.00
83098;DHT22;72971;47.204;8.582;2023-10-09T06:49:55;22.30;45.80
83098;DHT22;72971;47.204;8.582;2023-10-09T06:55:11;22.30;45.50
83098;DHT22;72971;47.204;8.582;2023-10-09T07:00:16;22.30;45.10
83098;DHT22;72971;47.204;8.582;2023-10-09T07:05:38;22.20;45.20
83098;DHT22;72971;47.204;8.582;2023-10-09T07:11:00;22.20;45.50
83098;DHT22;72971;47.204;8.582;2023-10-09T07:16:22;22.20;45.50
83098;DHT22;72971;47.204;8.582;2023-10-09T07:21:28;22.30;45.80
83098;DHT22;72971;47.204;8.582;2023-10-09T07:26:31;22.40;46.30
83098;DHT22;72971;47.204;8.582;2023-10-09T07:31:42;22.40;46.40
83098;DHT22;72971;47.204;8.582;2023-10-09T07:36:46;22.50;46.70
83098;DHT22;72971;47.204;8.582;2023-10-09T07:41:50;22.50;46.80
83098;DHT22;72971;47.204;8.582;2023-10-09T07:47:01;22.60;46.90
83098;DHT22;72971;47.204;8.582;2023-10-09T07:52:23;22.60;47.10
83098;DHT22;72971;47.204;8.582;2023-10-09T07:57:27;22.70;47.40
83098;DHT22;72971;47.204;8.582;2023-10-09T08:02:32;22.70;47.90
83098;DHT22;72971;47.204;8.582;2023-10-09T08:07:34;22.70;47.90
83098;DHT22;72971;47.204;8.582;2023-10-09T08:12:37;22.80;48.50
83098;DHT22;72971;47.204;8.582;2023-10-09T08:17:57;22.80;48.70
83098;DHT22;72971;47.204;8.582;2023-10-09T08:23:07;22.90;48.40
83098;DHT22;72971;47.204;8.582;2023-10-09T08:28:11;22.90;48.40
83098;DHT22;72971;47.204;8.582;2023-10-09T08:33:18;22.90;48.40
83098;DHT22;72971;47.204;8.582;2023-10-09T08:38:31;22.90;48.10
83098;DHT22;72971;47.204;8.582;2023-10-09T08:43:37;22.90;48.20
83098;DHT22;72971;47.204;8.582;2023-10-09T08:48:41;22.90;47.40
83098;DHT22;72971;47.204;8.582;2023-10-09T08:53:43;22.90;47.70
83098;DHT22;72971;47.204;8.582;2023-10-09T09:03:57;23.00;47.80
83098;DHT22;72971;47.204;8.582;2023-10-09T09:09:12;23.00;47.70
83098;DHT22;72971;47.204;8.582;2023-10-09T09:14:16;22.90;47.70
83098;DHT22;72971;47.204;8.582;2023-10-09T09:19:30;22.90;47.50
83098;DHT22;72971;47.204;8.582;2023-10-09T09:24:30;23.00;47.50
83098;DHT22;72971;47.204;8.582;2023-10-09T09:29:41;23.00;47.60
83098;DHT22;72971;47.204;8.582;2023-10-09T09:34:49;23.20;47.90
83098;DHT22;72971;47.204;8.582;2023-10-09T09:40:04;23.10;47.50
83098;DHT22;72971;47.204;8.582;2023-10-09T09:45:06;23.10;47.70
83098;DHT22;72971;47.204;8.582;2023-10-09T09:50:11;23.20;47.90
83098;DHT22;72971;47.204;8.582;2023-10-09T09:55:16;23.30;48.00
83098;DHT22;72971;47.204;8.582;2023-10-09T10:00:25;23.20;47.30
83098;DHT22;72971;47.204;8.582;2023-10-09T10:05:30;23.30;47.60
83098;DHT22;72971;47.204;8.582;2023-10-09T10:10:37;23.30;47.60
83098;DHT22;72971;47.204;8.582;2023-10-09T10:15:59;23.40;47.60
83098;DHT22;72971;47.204;8.582;2023-10-09T10:21:10;23.40;47.60
83098;DHT22;72971;47.204;8.582;2023-10-09T10:26:22;23.40;47.60
83098;DHT22;72971;47.204;8.582;2023-10-09T10:31:51;23.40;47.50
83098;DHT22;72971;47.204;8.582;2023-10-09T10:36:56;23.40;47.40
83098;DHT22;72971;47.204;8.582;2023-10-09T10:42:01;23.40;47.20
83098;DHT22;72971;47.204;8.582;2023-10-09T10:47:10;23.50;47.10
83098;DHT22;72971;47.204;8.582;2023-10-09T10:52:27;23.50;46.90
83098;DHT22;72971;47.204;8.582;2023-10-09T10:57:46;23.40;46.70
83098;DHT22;72971;47.204;8.582;2023-10-09T11:02:59;23.50;46.90
83098;DHT22;72971;47.204;8.582;2023-10-09T11:08:08;23.50;46.80
83098;DHT22;72971;47.204;8.582;2023-10-09T11:13:09;23.50;46.90
83098;DHT22;72971;47.204;8.582;2023-10-09T11:18:15;23.50;47.00
83098;DHT22;72971;47.204;8.582;2023-10-09T11:23:28;23.50;47.70
83098;DHT22;72971;47.204;8.582;2023-10-09T11:28:39;23.50;47.10
83098;DHT22;72971;47.204;8.582;2023-10-09T11:33:48;23.50;47.10
83098;DHT22;72971;47.204;8.582;2023-10-09T11:38:53;23.50;47.10
83098;DHT22;72971;47.204;8.582;2023-10-09T11:43:57;23.50;47.10
83098;DHT22;72971;47.204;8.582;2023-10-09T11:49:04;23.50;47.20
83098;DHT22;72971;47.204;8.582;2023-10-09T11:54:31;23.50;47.20
83098;DHT22;72971;47.204;8.582;2023-10-09T11:59:35;23.50;47.20
83098;DHT22;72971;47.204;8.582;2023-10-09T12:04:39;23.50;47.30
83098;DHT22;72971;47.204;8.582;2023-10-09T12:09:45;23.60;47.30
83098;DHT22;72971;47.204;8.582;2023-10-09T12:14:49;23.50;47.40
83098;DHT22;72971;47.204;8.582;2023-10-09T12:19:53;23.50;47.40
83098;DHT22;72971;47.204;8.582;2023-10-09T12:24:57;23.50;47.50
83098;DHT22;72971;47.204;8.582;2023-10-09T12:30:00;23.50;47.50
83098;DHT22;72971;47.204;8.582;2023-10-09T12:35:04;23.50;47.50
83098;DHT22;72971;47.204;8.582;2023-10-09T12:40:09;23.60;47.60
83098;DHT22;72971;47.204;8.582;2023-10-09T12:45:13;23.60;47.60
83098;DHT22;72971;47.204;8.582;2023-10-09T12:50:16;23.70;47.70
83098;DHT22;72971;47.204;8.582;2023-10-09T12:55:20;23.70;47.80
83098;DHT22;72971;47.204;8.582;2023-10-09T13:00:23;23.70;47.80
83098;DHT22;72971;47.204;8.582;2023-10-09T13:05:28;23.70;47.90
83098;DHT22;72971;47.204;8.582;2023-10-09T13:10:32;23.70;48.00
83098;DHT22;72971;47.204;8.582;2023-10-09T13:15:34;23.70;48.10
83098;DHT22;72971;47.204;8.582;2023-10-09T13:20:38;23.80;48.20
83098;DHT22;72971;47.204;8.582;2023-10-09T13:25:41;23.80;48.30
83098;DHT22;72971;47.204;8.582;2023-10-09T13:30:46;23.80;48.30
83098;DHT22;72971;47.204;8.582;2023-10-09T13:35:50;23.80;48.40
83098;DHT22;72971;47.204;8.582;2023-10-09T13:40:58;23.80;48.50
83098;DHT22;72971;47.204;8.582;2023-10-09T13:46:02;23.80;48.60
83098;DHT22;72971;47.204;8.582;2023-10-09T13:51:05;23.90;48.70
83098;DHT22;72971;47.204;8.582;2023-10-09T13:56:14;23.90;48.70
83098;DHT22;72971;47.204;8.582;2023-10-09T14:01:19;23.90;48.90
83098;DHT22;72971;47.204;8.582;2023-10-09T14:06:32;23.90;48.90
83098;DHT22;72971;47.204;8.582;2023-10-09T14:11:35;23.90;48.90
83098;DHT22;72971;47.204;8.582;2023-10-09T14:16:44;23.90;48.90
83098;DHT22;72971;47.204;8.582;2023-10-09T14:21:47;23.90;49.10
83098;DHT22;72971;47.204;8.582;2023-10-09T14:26:51;23.90;49.10
83098;DHT22;72971;47.204;8.582;2023-10-09T14:31:53;23.90;49.20
83098;DHT22;72971;47.204;8.582;2023-10-09T14:37:00;23.90;49.40
83098;DHT22;72971;47.204;8.582;2023-10-09T14:42:05;23.90;49.50
83098;DHT22;72971;47.204;8.582;2023-10-09T14:47:10;23.90;49.50
83098;DHT22;72971;47.204;8.582;2023-10-09T14:52:14;23.90;49.60
83098;DHT22;72971;47.204;8.582;2023-10-09T14:57:20;23.90;49.70
83098;DHT22;72971;47.204;8.582;2023-10-09T15:02:23;23.90;49.70
83098;DHT22;72971;47.204;8.582;2023-10-09T15:07:25;23.90;49.70
83098;DHT22;72971;47.204;8.582;2023-10-09T15:12:30;24.00;49.70
83098;DHT22;72971;47.204;8.582;2023-10-09T15:17:32;24.00;49.70
83098;DHT22;72971;47.204;8.582;2023-10-09T15:22:35;24.00;49.70
83098;DHT22;72971;47.204;8.582;2023-10-09T15:27:38;24.00;49.80
83098;DHT22;72971;47.204;8.582;2023-10-09T15:32:41;24.00;49.80
83098;DHT22;72971;47.204;8.582;2023-10-09T15:42:48;24.00;49.70
83098;DHT22;72971;47.204;8.582;2023-10-09T15:47:56;24.10;49.60
83098;DHT22;72971;47.204;8.582;2023-10-09T15:52:59;24.10;49.60
83098;DHT22;72971;47.204;8.582;2023-10-09T15:58:02;24.00;49.70
83098;DHT22;72971;47.204;8.582;2023-10-09T16:03:07;24.10;49.60
83098;DHT22;72971;47.204;8.582;2023-10-09T16:08:11;24.00;49.70
83098;DHT22;72971;47.204;8.582;2023-10-09T16:13:13;24.00;49.70
83098;DHT22;72971;47.204;8.582;2023-10-09T16:18:17;24.00;49.60
83098;DHT22;72971;47.204;8.582;2023-10-09T16:23:22;24.00;49.60
83098;DHT22;72971;47.204;8.582;2023-10-09T16:28:27;24.00;50.40
83098;DHT22;72971;47.204;8.582;2023-10-09T16:33:29;24.00;49.80
83098;DHT22;72971;47.204;8.582;2023-10-09T16:38:32;23.90;49.70
83098;DHT22;72971;47.204;8.582;2023-10-09T16:43:37;23.90;49.80
83098;DHT22;72971;47.204;8.582;2023-10-09T16:48:41;23.90;49.80
83098;DHT22;72971;47.204;8.582;2023-10-09T16:53:45;23.90;50.00
83098;DHT22;72971;47.204;8.582;2023-10-09T16:58:49;23.90;49.80
83098;DHT22;72971;47.204;8.582;2023-10-09T17:03:56;23.90;49.90
83098;DHT22;72971;47.204;8.582;2023-10-09T17:08:59;23.80;49.90
83098;DHT22;72971;47.204;8.582;2023-10-09T17:14:02;23.90;50.00
83098;DHT22;72971;47.204;8.582;2023-10-09T17:19:06;23.90;50.00
83098;DHT22;72971;47.204;8.582;2023-10-09T17:24:09;23.90;50.00
83098;DHT22;72971;47.204;8.582;2023-10-09T17:29:12;23.80;50.00
83098;DHT22;72971;47.204;8.582;2023-10-09T17:34:15;23.80;50.00
83098;DHT22;72971;47.204;8.582;2023-10-09T17:39:19;23.80;50.00
83098;DHT22;72971;47.204;8.582;2023-10-09T17:44:23;23.80;50.10
83098;DHT22;72971;47.204;8.582;2023-10-09T17:49:26;23.80;50.00
83098;DHT22;72971;47.204;8.582;2023-10-09T17:54:48;23.80;50.10
83098;DHT22;72971;47.204;8.582;2023-10-09T17:59:53;23.80;50.10
83098;DHT22;72971;47.204;8.582;2023-10-09T18:04:57;23.80;50.20
83098;DHT22;72971;47.204;8.582;2023-10-09T18:09:59;23.80;50.10
83098;DHT22;72971;47.204;8.582;2023-10-09T18:15:04;23.80;50.20
83098;DHT22;72971;47.204;8.582;2023-10-09T18:20:08;23.80;50.10
83098;DHT22;72971;47.204;8.582;2023-10-09T18:25:10;23.80;50.30
83098;DHT22;72971;47.204;8.582;2023-10-09T18:30:13;23.80;50.00
83098;DHT22;72971;47.204;8.582;2023-10-09T18:35:16;23.70;50.00
83098;DHT22;72971;47.204;8.582;2023-10-09T18:40:19;23.70;50.00
83098;DHT22;72971;47.204;8.582;2023-10-09T18:45:23;23.70;50.00
83098;DHT22;72971;47.204;8.582;2023-10-09T18:50:26;23.70;50.00
83098;DHT22;72971;47.204;8.582;2023-10-09T18:55:34;23.70;50.10
83098;DHT22;72971;47.204;8.582;2023-10-09T19:00:40;23.60;50.10
83098;DHT22;72971;47.204;8.582;2023-10-09T19:05:43;23.70;50.10
83098;DHT22;72971;47.204;8.582;2023-10-09T19:10:46;23.60;50.10
83098;DHT22;72971;47.204;8.582;2023-10-09T19:15:49;23.60;50.10
83098;DHT22;72971;47.204;8.582;2023-10-09T19:20:52;23.60;50.20
83098;DHT22;72971;47.204;8.582;2023-10-09T19:25:55;23.60;50.20
83098;DHT22;72971;47.204;8.582;2023-10-09T19:31:09;23.60;50.20
83098;DHT22;72971;47.204;8.582;2023-10-09T19:36:13;23.50;50.20
83098;DHT22;72971;47.204;8.582;2023-10-09T19:41:23;23.50;50.20
83098;DHT22;72971;47.204;8.582;2023-10-09T19:46:26;23.50;50.20
83098;DHT22;72971;47.204;8.582;2023-10-09T19:51:29;23.50;50.30
83098;DHT22;72971;47.204;8.582;2023-10-09T19:56:32;23.50;50.30
83098;DHT22;72971;47.204;8.582;2023-10-09T20:01:37;23.50;50.30
83098;DHT22;72971;47.204;8.582;2023-10-09T20:06:41;23.50;50.30
83098;DHT22;72971;47.204;8.582;2023-10-09T20:11:45;23.50;50.30
83098;DHT22;72971;47.204;8.582;2023-10-09T20:16:48;23.50;50.30
83098;DHT22;72971;47.204;8.582;2023-10-09T20:21:50;23.50;50.30
83098;DHT22;72971;47.204;8.582;2023-10-09T20:26:54;23.50;50.30
83098;DHT22;72971;47.204;8.582;2023-10-09T20:31:57;23.50;50.40
83098;DHT22;72971;47.204;8.582;2023-10-09T20:36:59;23.40;50.40
83098;DHT22;72971;47.204;8.582;2023-10-09T20:42:04;23.50;50.30
83098;DHT22;72971;47.204;8.582;2023-10-09T20:47:07;23.40;50.30
83098;DHT22;72971;47.204;8.582;2023-10-09T20:52:11;23.40;50.30
83098;DHT22;72971;47.204;8.582;2023-10-09T20:57:14;23.40;50.30
83098;DHT22;72971;47.204;8.582;2023-10-09T21:02:17;23.50;50.30
83098;DHT22;72971;47.204;8.582;2023-10-09T21:07:21;23.50;50.30
83098;DHT22;72971;47.204;8.582;2023-10-09T21:12:24;23.40;50.30
83098;DHT22;72971;47.204;8.582;2023-10-09T21:17:27;23.40;50.30
83098;DHT22;72971;47.204;8.582;2023-10-09T21:22:29;23.40;50.30
83098;DHT22;72971;47.204;8.582;2023-10-09T21:27:33;23.40;50.30
83098;DHT22;72971;47.204;8.582;2023-10-09T21:32:36;23.50;50.30
83098;DHT22;72971;47.204;8.582;2023-10-09T21:37:52;23.40;50.30
83098;DHT22;72971;47.204;8.582;2023-10-09T21:42:59;23.40;50.30
83098;DHT22;72971;47.204;8.582;2023-10-09T21:48:04;23.40;50.30
83098;DHT22;72971;47.204;8.582;2023-10-09T21:53:08;23.40;50.30
83098;DHT22;72971;47.204;8.582;2023-10-09T21:58:11;23.40;50.30
83098;DHT22;72971;47.204;8.582;2023-10-09T22:03:13;23.40;50.30
83098;DHT22;72971;47.204;8.582;2023-10-09T22:08:16;23.40;50.30
83098;DHT22;72971;47.204;8.582;2023-10-09T22:13:21;23.40;50.30
83098;DHT22;72971;47.204;8.582;2023-10-09T22:18:24;23.40;50.30
83098;DHT22;72971;47.204;8.582;2023-10-09T22:23:27;23.40;50.30
83098;DHT22;72971;47.204;8.582;2023-10-09T22:28:32;23.40;50.30
83098;DHT22;72971;47.204;8.582;2023-10-09T22:33:35;23.40;50.30
83098;DHT22;72971;47.204;8.582;2023-10-09T22:38:39;23.40;50.30
83098;DHT22;72971;47.204;8.582;2023-10-09T22:43:43;23.40;50.30
83098;DHT22;72971;47.204;8.582;2023-10-09T22:48:48;23.40;50.30
83098;DHT22;72971;47.204;8.582;2023-10-09T22:53:52;23.40;50.30
83098;DHT22;72971;47.204;8.582;2023-10-09T22:58:57;23.40;50.30
83098;DHT22;72971;47.204;8.582;2023-10-09T23:04:01;23.40;50.30
83098;DHT22;72971;47.204;8.582;2023-10-09T23:09:17;23.40;50.30
83098;DHT22;72971;47.204;8.582;2023-10-09T23:14:27;23.40;50.30
83098;DHT22;72971;47.204;8.582;2023-10-09T23:19:32;23.40;50.30
83098;DHT22;72971;47.204;8.582;2023-10-09T23:24:42;23.40;50.30
83098;DHT22;72971;47.204;8.582;2023-10-09T23:29:42;23.30;50.20
83098;DHT22;72971;47.204;8.582;2023-10-09T23:34:47;23.40;50.30
83098;DHT22;72971;47.204;8.582;2023-10-09T23:40:01;23.30;50.20
83098;DHT22;72971;47.204;8.582;2023-10-09T23:45:06;23.30;50.20
83098;DHT22;72971;47.204;8.582;2023-10-09T23:50:09;23.30;50.20
83098;DHT22;72971;47.204;8.582;2023-10-09T23:55:13;23.30;50.20
